Terminal Aerodrome Forecast
Issued by NWS

Home | Current Version | Previous Version | Text Only | Print | Product List | Glossary On
Versions: 1 2 3 4 5 6 7 8 9 10 11 12 13 14 15
007
FTUS44 KSJT 221731
TAFJCT
TAF
KJCT 221731Z 2218/2318 31023G33KT P6SM SKC
     FM230000 33010KT P6SM SKC
     FM230300 30002KT P6SM SKC=

USA.gov is the U.S. government's official web portal to all federal, state and local government web resources and services.